Time;durP1;ratioP1;P1;durP2;ratioP2;P2;SDS_P1;SDS_P2;PMS_P1;PMS_P2;Temp;Humidity;BMP_temperature;BMP_pressure;BME280_temperature;BME280_humidity;BME280_pressure;Samples;Min_cycle;Max_cycle;Signal;HPM_P1;HPM_P2
2022/12/27 00:00:00;;;;;;;5.47;2.05;;;3.00;90.10;;;;;;5021376;28;20021;-49
2022/12/27 00:02:28;;;;;;;10.30;2.53;;;3.00;90.20;;;;;;5025541;28;20123;-53
2022/12/27 00:04:55;;;;;;;8.90;2.10;;;3.00;90.30;;;;;;5052979;28;20037;-51
2022/12/27 00:07:22;;;;;;;11.68;2.08;;;3.00;90.30;;;;;;5052175;28;20040;-49
2022/12/27 00:09:52;;;;;;;9.95;2.30;;;3.00;90.10;;;;;;5052960;28;20033;-49
2022/12/27 00:12:19;;;;;;;11.38;2.42;;;2.90;90.20;;;;;;5036939;28;20025;-50
2022/12/27 00:14:46;;;;;;;11.50;2.45;;;2.90;90.20;;;;;;5032813;28;20100;-46
2022/12/27 00:17:13;;;;;;;9.25;2.70;;;3.00;90.30;;;;;;5031647;28;20030;-53
2022/12/27 00:19:39;;;;;;;8.48;2.90;;;2.90;90.20;;;;;;5044746;28;20025;-50
2022/12/27 00:22:07;;;;;;;10.60;2.80;;;2.90;90.20;;;;;;5052869;28;20036;-49
2022/12/27 00:24:36;;;;;;;10.35;2.10;;;2.90;90.30;;;;;;5052527;28;20362;-47
2022/12/27 00:27:05;;;;;;;6.13;1.63;;;2.90;90.30;;;;;;5035766;28;20112;-46
2022/12/27 00:29:32;;;;;;;12.45;2.75;;;3.00;90.50;;;;;;5032872;28;20049;-51
2022/12/27 00:32:02;;;;;;;16.08;3.63;;;3.00;90.30;;;;;;5028325;28;20041;-50
2022/12/27 00:34:29;;;;;;;10.95;3.08;;;3.00;90.40;;;;;;5013628;28;20034;-50
2022/12/27 00:36:59;;;;;;;10.57;2.45;;;3.00;90.30;;;;;;5013253;28;20059;-47
2022/12/27 00:39:26;;;;;;;9.13;2.58;;;3.00;90.40;;;;;;5012940;28;20184;-47
2022/12/27 00:41:52;;;;;;;9.45;2.25;;;3.00;90.20;;;;;;4998664;28;20034;-48
2022/12/27 00:44:20;;;;;;;7.93;2.00;;;3.10;90.30;;;;;;5012925;28;20080;-49
2022/12/27 00:46:47;;;;;;;6.95;2.10;;;3.10;90.40;;;;;;5018936;28;20048;-52
2022/12/27 00:49:14;;;;;;;7.15;1.80;;;3.10;90.40;;;;;;5033017;28;20029;-51
2022/12/27 00:51:41;;;;;;;6.97;2.40;;;3.10;90.40;;;;;;5035248;28;20128;-49
2022/12/27 00:54:08;;;;;;;9.27;2.20;;;3.20;90.50;;;;;;5035162;28;20052;-49
2022/12/27 00:56:35;;;;;;;14.57;2.47;;;3.10;90.30;;;;;;5032431;28;20021;-49
2022/12/27 00:59:03;;;;;;;7.30;2.60;;;3.10;90.40;;;;;;5056562;28;20031;-51
2022/12/27 01:01:35;;;;;;;6.70;2.05;;;3.10;90.50;;;;;;5035412;28;20022;-47
2022/12/27 01:04:03;;;;;;;6.88;2.42;;;3.20;90.80;;;;;;5015877;28;20357;-48
2022/12/27 01:06:32;;;;;;;11.27;2.53;;;3.40;90.90;;;;;;5025253;28;20112;-54
2022/12/27 01:09:01;;;;;;;9.55;1.95;;;3.40;90.90;;;;;;5036205;28;20362;-57
2022/12/27 01:11:29;;;;;;;12.63;2.55;;;3.50;91.00;;;;;;5035503;28;20021;-57
2022/12/27 01:14:00;;;;;;;7.65;2.05;;;3.60;90.90;;;;;;5016428;28;20048;-62
2022/12/27 01:16:29;;;;;;;8.20;2.22;;;3.70;91.00;;;;;;5018407;28;20029;-67
2022/12/27 01:18:59;;;;;;;8.65;3.10;;;3.70;91.10;;;;;;5045759;28;20112;-61
2022/12/27 01:21:29;;;;;;;9.02;2.33;;;3.70;91.40;;;;;;5056098;28;20618;-64
2022/12/27 01:23:56;;;;;;;11.73;2.65;;;3.70;91.70;;;;;;5032203;28;20129;-63
2022/12/27 01:26:23;;;;;;;6.10;2.35;;;3.60;91.70;;;;;;4999033;28;20152;-62
2022/12/27 01:28:52;;;;;;;5.93;2.53;;;3.60;91.80;;;;;;5054347;28;20067;-61
2022/12/27 01:31:24;;;;;;;13.60;3.27;;;3.50;91.80;;;;;;5047460;28;20037;-61
2022/12/27 01:33:54;;;;;;;8.48;2.03;;;3.40;91.60;;;;;;5036105;28;20030;-61
2022/12/27 01:36:25;;;;;;;9.27;2.17;;;3.30;91.70;;;;;;5034079;28;20102;-60
2022/12/27 01:38:53;;;;;;;9.43;2.30;;;3.20;91.80;;;;;;5035829;28;20120;-60
2022/12/27 01:44:39;;;;;;;12.20;2.42;;;3.10;91.90;;;;;;5056092;28;20028;-58
2022/12/27 01:47:29;;;;;;;8.57;2.40;;;3.00;91.80;;;;;;5023689;28;20045;-59
2022/12/27 01:50:25;;;;;;;11.27;2.65;;;2.90;91.90;;;;;;5034613;28;20033;-58
2022/12/27 01:53:24;;;;;;;6.15;2.33;;;2.90;92.10;;;;;;5033724;28;20028;-58
2022/12/27 01:56:01;;;;;;;11.52;2.60;;;2.90;92.10;;;;;;5034763;28;20029;-57
2022/12/27 01:58:34;;;;;;;7.50;2.72;;;2.90;92.10;;;;;;5032761;28;20021;-55
2022/12/27 02:01:06;;;;;;;9.20;2.90;;;2.90;92.10;;;;;;5046227;28;20021;-57
2022/12/27 02:03:50;;;;;;;5.93;2.75;;;3.00;92.30;;;;;;5033960;28;20049;-58
2022/12/27 02:06:19;;;;;;;7.63;2.30;;;3.10;92.50;;;;;;5052555;28;20040;-63
2022/12/27 02:09:04;;;;;;;7.10;2.17;;;3.30;92.70;;;;;;5055666;28;20041;-62
2022/12/27 02:14:48;;;;;;;7.20;2.42;;;3.50;92.80;;;;;;5035059;28;20091;-60
2022/12/27 02:17:23;;;;;;;9.25;2.45;;;3.50;92.80;;;;;;5036355;28;20048;-59
2022/12/27 02:20:21;;;;;;;10.75;2.75;;;3.50;92.70;;;;;;5034382;28;20351;-59
2022/12/27 02:26:42;;;;;;;9.20;3.03;;;3.50;92.70;;;;;;5034614;28;20335;-63
2022/12/27 02:29:42;;;;;;;9.20;2.50;;;3.60;92.70;;;;;;5052128;28;20025;-63
2022/12/27 02:32:27;;;;;;;6.65;2.47;;;3.60;92.70;;;;;;5041610;28;20176;-61
2022/12/27 02:35:04;;;;;;;7.30;2.65;;;3.60;92.70;;;;;;5015142;28;20037;-60
2022/12/27 02:37:36;;;;;;;7.50;3.05;;;3.70;92.70;;;;;;5018190;28;20105;-60
2022/12/27 02:55:28;;;;;;;7.60;2.60;;;3.70;92.70;;;;;;5003978;28;20515;-62
2022/12/27 02:58:17;;;;;;;5.97;2.58;;;3.70;92.80;;;;;;5033861;28;20041;-61
2022/12/27 03:04:53;;;;;;;9.00;2.45;;;3.80;92.80;;;;;;5012572;28;20057;-63
2022/12/27 03:07:42;;;;;;;9.30;1.77;;;3.80;92.70;;;;;;5053753;28;20032;-62
2022/12/27 03:16:57;;;;;;;6.90;2.30;;;3.60;92.90;;;;;;5053752;28;20040;-61
2022/12/27 03:25:28;;;;;;;5.43;1.60;;;3.70;93.20;;;;;;5051751;28;20052;-59
2022/12/27 03:33:47;;;;;;;13.50;3.58;;;3.80;93.40;;;;;;5033723;28;20152;-56
2022/12/27 03:39:19;;;;;;;7.28;2.33;;;3.80;93.30;;;;;;5012108;28;20045;-57
2022/12/27 03:44:41;;;;;;;7.68;1.58;;;3.80;93.30;;;;;;5028885;28;20033;-57
2022/12/27 03:47:17;;;;;;;9.10;3.15;;;3.90;93.30;;;;;;5023528;28;20021;-57
2022/12/27 03:49:51;;;;;;;8.75;1.70;;;3.90;93.20;;;;;;5030317;28;20493;-55
2022/12/27 03:52:46;;;;;;;4.80;1.60;;;3.90;93.10;;;;;;5015240;28;20379;-57
2022/12/27 03:55:13;;;;;;;4.47;1.60;;;3.90;93.00;;;;;;5017717;28;20033;-57
2022/12/27 03:57:41;;;;;;;8.52;1.83;;;3.80;92.90;;;;;;5022785;28;20022;-56
2022/12/27 04:00:09;;;;;;;11.77;3.60;;;3.80;92.80;;;;;;5024703;28;20021;-55
2022/12/27 04:02:35;;;;;;;6.93;1.88;;;3.80;92.80;;;;;;5021932;28;20514;-52
2022/12/27 04:05:03;;;;;;;9.23;2.10;;;3.80;92.90;;;;;;5031066;28;20374;-54
2022/12/27 04:07:30;;;;;;;11.18;2.30;;;3.80;92.90;;;;;;5032205;28;20049;-53
2022/12/27 04:34:43;;;;;;;9.50;3.25;;;4.00;92.80;;;;;;5042830;28;20091;-60
2022/12/27 04:37:19;;;;;;;10.55;2.30;;;3.90;92.80;;;;;;5055563;28;20029;-59
2022/12/27 04:56:22;;;;;;;15.07;2.50;;;4.10;92.80;;;;;;5056502;28;20047;-61
2022/12/27 05:04:23;;;;;;;13.23;2.28;;;3.90;92.80;;;;;;5035244;28;20064;-59
2022/12/27 05:06:50;;;;;;;8.68;1.92;;;3.90;92.70;;;;;;5031340;28;20109;-58
2022/12/27 05:14:47;;;;;;;11.57;3.35;;;3.80;92.70;;;;;;5051236;28;20123;-58
2022/12/27 05:17:14;;;;;;;11.50;2.15;;;3.80;92.70;;;;;;5038144;28;20033;-58
2022/12/27 05:19:40;;;;;;;11.40;1.77;;;3.70;92.60;;;;;;5034996;28;20140;-58
2022/12/27 05:27:36;;;;;;;8.02;1.63;;;3.60;92.10;;;;;;5055984;28;20036;-58
2022/12/27 05:30:03;;;;;;;7.57;1.50;;;3.60;92.00;;;;;;5055944;28;20040;-52
2022/12/27 05:32:33;;;;;;;6.70;1.27;;;3.60;92.00;;;;;;5035981;28;20056;-54
2022/12/27 05:35:00;;;;;;;6.15;1.52;;;3.60;91.90;;;;;;5035812;28;20029;-55
2022/12/27 05:37:26;;;;;;;5.65;1.20;;;3.60;91.90;;;;;;5034940;28;20051;-57
2022/12/27 05:39:53;;;;;;;5.07;1.15;;;3.70;91.70;;;;;;5036910;28;20018;-54
2022/12/27 05:42:22;;;;;;;5.30;1.25;;;3.70;91.50;;;;;;5016645;28;20030;-55
2022/12/27 05:44:49;;;;;;;3.63;1.57;;;3.60;91.30;;;;;;5015871;28;20037;-53
2022/12/27 05:47:15;;;;;;;10.40;0.90;;;3.50;91.10;;;;;;5017140;28;20033;-56
2022/12/27 05:49:42;;;;;;;5.13;0.98;;;3.50;91.20;;;;;;5035787;28;20025;-53
2022/12/27 05:52:08;;;;;;;7.97;1.38;;;3.50;91.30;;;;;;5042126;28;20104;-52
2022/12/27 05:54:35;;;;;;;7.95;1.20;;;3.40;91.30;;;;;;5034601;28;20068;-56
2022/12/27 05:57:02;;;;;;;9.20;1.23;;;3.50;91.30;;;;;;5044503;28;20164;-54
2022/12/27 05:59:34;;;;;;;8.02;1.80;;;3.50;91.30;;;;;;5037835;28;20021;-54
2022/12/27 06:02:01;;;;;;;8.57;1.67;;;3.50;91.20;;;;;;5034806;28;20045;-52
2022/12/27 06:04:29;;;;;;;7.65;1.80;;;3.60;91.20;;;;;;5034797;28;20371;-54
2022/12/27 06:06:55;;;;;;;11.07;2.22;;;3.70;91.20;;;;;;5034793;28;20033;-53
2022/12/27 06:09:25;;;;;;;8.77;1.92;;;3.70;91.20;;;;;;5047163;28;20025;-54
2022/12/27 06:11:56;;;;;;;5.93;1.27;;;3.70;91.00;;;;;;5024908;28;20478;-51
2022/12/27 06:14:22;;;;;;;7.95;1.52;;;3.70;90.90;;;;;;5024289;28;20105;-55
2022/12/27 06:16:48;;;;;;;7.18;1.40;;;3.70;90.90;;;;;;5023899;28;20157;-48
2022/12/27 06:19:15;;;;;;;8.52;4.25;;;3.80;91.00;;;;;;5028183;28;20033;-52
2022/12/27 06:21:42;;;;;;;7.43;1.60;;;3.80;91.00;;;;;;5024969;28;20010;-49
2022/12/27 06:24:09;;;;;;;9.15;2.70;;;3.80;90.90;;;;;;5025611;28;20030;-54
2022/12/27 06:26:36;;;;;;;7.45;1.40;;;3.80;90.90;;;;;;5020123;28;20037;-50
2022/12/27 06:29:01;;;;;;;8.30;1.75;;;3.80;90.90;;;;;;5030102;28;20029;-58
2022/12/27 06:31:28;;;;;;;5.57;1.60;;;3.80;91.10;;;;;;5032530;28;20410;-58
2022/12/27 06:33:55;;;;;;;7.47;1.77;;;3.80;91.10;;;;;;5033925;28;20033;-57
2022/12/27 06:36:29;;;;;;;8.18;1.75;;;3.80;91.40;;;;;;5052789;28;20029;-56
2022/12/27 06:38:56;;;;;;;10.57;2.13;;;3.80;91.50;;;;;;5029033;28;20025;-57
2022/12/27 06:41:23;;;;;;;12.30;1.75;;;3.80;91.50;;;;;;5023477;28;20037;-55
2022/12/27 06:43:55;;;;;;;7.95;2.10;;;3.70;91.40;;;;;;5027548;28;20025;-56
2022/12/27 06:46:25;;;;;;;7.20;2.08;;;3.60;91.50;;;;;;5009725;28;20029;-54
2022/12/27 06:48:52;;;;;;;12.30;2.05;;;3.60;91.50;;;;;;5026120;28;20068;-54
2022/12/27 06:51:19;;;;;;;7.88;2.10;;;3.60;91.70;;;;;;5024141;28;20029;-57
2022/12/27 06:53:47;;;;;;;8.85;1.90;;;3.50;91.60;;;;;;5028577;28;20045;-56
2022/12/27 06:56:17;;;;;;;15.52;1.48;;;3.50;91.80;;;;;;5022748;28;20034;-57
2022/12/27 06:58:45;;;;;;;8.93;1.58;;;3.50;91.90;;;;;;5020463;28;20026;-52
2022/12/27 07:01:21;;;;;;;6.18;2.08;;;3.50;91.90;;;;;;5020837;28;20041;-56
2022/12/27 07:03:57;;;;;;;11.85;2.28;;;3.50;92.00;;;;;;5011826;28;20062;-53
2022/12/27 07:06:26;;;;;;;11.20;2.50;;;3.50;92.10;;;;;;5017522;28;20034;-55
2022/12/27 07:08:54;;;;;;;9.90;1.67;;;3.60;92.00;;;;;;5024370;28;20029;-56
2022/12/27 07:11:22;;;;;;;8.98;1.55;;;3.50;91.90;;;;;;5032775;28;20072;-55
2022/12/27 07:13:52;;;;;;;7.25;1.40;;;3.40;91.70;;;;;;5033988;28;20369;-52
2022/12/27 07:16:24;;;;;;;8.50;2.50;;;3.40;91.50;;;;;;5025813;28;20034;-54
2022/12/27 07:19:00;;;;;;;10.57;1.83;;;3.40;91.30;;;;;;5041338;28;20031;-51
2022/12/27 07:21:28;;;;;;;10.63;1.83;;;3.40;91.00;;;;;;5026200;28;20105;-56
2022/12/27 07:23:55;;;;;;;9.65;1.25;;;3.40;91.10;;;;;;5032947;28;20052;-53
2022/12/27 07:26:28;;;;;;;14.25;2.65;;;3.40;91.10;;;;;;5044692;28;20025;-54
2022/12/27 07:28:56;;;;;;;9.40;2.58;;;3.40;91.20;;;;;;5027221;28;20048;-52
2022/12/27 07:31:28;;;;;;;9.30;2.58;;;3.40;91.30;;;;;;5022251;28;20466;-52
2022/12/27 07:33:56;;;;;;;8.15;1.90;;;3.40;91.40;;;;;;5029331;28;20034;-52
2022/12/27 07:36:28;;;;;;;16.95;3.15;;;3.30;91.40;;;;;;5021382;28;20458;-55
2022/12/27 07:38:58;;;;;;;11.23;2.60;;;3.30;91.60;;;;;;5026303;28;20087;-51
2022/12/27 07:41:25;;;;;;;12.80;2.65;;;3.30;91.70;;;;;;5028327;28;20079;-56
2022/12/27 07:43:52;;;;;;;7.70;1.90;;;3.20;91.70;;;;;;5018723;28;20660;-55
2022/12/27 07:46:22;;;;;;;10.68;2.70;;;3.20;91.80;;;;;;5023713;28;20033;-55
2022/12/27 07:48:51;;;;;;;;;;;3.20;91.90;;;;;;5008229;28;20038;-51
2022/12/27 07:51:17;;;;;;;;;;;3.20;92.00;;;;;;5044080;28;19908;-48
2022/12/27 07:53:48;;;;;;;11.55;2.70;;;3.30;92.20;;;;;;5053174;28;20337;-59
2022/12/27 07:56:20;;;;;;;10.43;2.42;;;3.40;92.30;;;;;;5043330;28;20374;-63
2022/12/27 07:58:48;;;;;;;11.35;2.33;;;3.40;92.30;;;;;;5016456;28;20117;-62
2022/12/27 08:01:17;;;;;;;9.30;1.88;;;3.50;92.30;;;;;;5020803;28;20033;-60
2022/12/27 08:03:44;;;;;;;14.05;3.40;;;3.40;92.10;;;;;;5026658;28;20041;-60
2022/12/27 08:06:31;;;;;;;8.35;1.80;;;3.40;92.00;;;;;;5027030;28;20033;-59
2022/12/27 08:09:01;;;;;;;10.82;1.77;;;3.40;91.80;;;;;;5023257;28;20018;-59
2022/12/27 08:11:29;;;;;;;8.63;1.83;;;3.30;91.70;;;;;;5024570;28;20036;-58
2022/12/27 08:13:56;;;;;;;13.90;2.42;;;3.30;91.70;;;;;;5024790;28;20308;-56
2022/12/27 08:16:25;;;;;;;10.85;2.45;;;3.30;91.60;;;;;;5020316;28;20047;-57
2022/12/27 08:18:53;;;;;;;8.95;2.13;;;3.30;91.70;;;;;;5028636;28;20068;-58
2022/12/27 08:21:19;;;;;;;7.60;2.88;;;3.20;91.60;;;;;;5030947;28;20033;-56
2022/12/27 08:23:46;;;;;;;10.85;2.25;;;3.20;91.70;;;;;;5029377;28;20398;-58
2022/12/27 08:26:15;;;;;;;13.23;2.78;;;3.20;91.80;;;;;;5019072;28;20045;-57
2022/12/27 08:28:43;;;;;;;6.15;2.15;;;3.40;92.10;;;;;;5016048;28;20143;-52
2022/12/27 08:31:10;;;;;;;6.88;2.10;;;3.40;92.20;;;;;;5020455;28;20061;-56
2022/12/27 08:33:40;;;;;;;11.65;2.90;;;3.40;92.30;;;;;;5022807;28;20124;-52
2022/12/27 08:36:10;;;;;;;12.38;3.28;;;3.50;92.00;;;;;;5028546;28;20091;-50
2022/12/27 08:38:38;;;;;;;13.75;2.70;;;3.70;92.30;;;;;;5033862;28;20463;-54
2022/12/27 08:41:05;;;;;;;17.33;2.67;;;3.90;92.30;;;;;;5015881;28;20030;-51
2022/12/27 08:43:31;;;;;;;15.02;3.33;;;4.00;92.20;;;;;;5026610;28;20107;-50
2022/12/27 08:46:07;;;;;;;13.30;3.00;;;4.00;91.60;;;;;;5024065;28;20037;-51
2022/12/27 08:48:36;;;;;;;16.15;2.20;;;4.00;91.20;;;;;;5016730;28;20213;-55
2022/12/27 08:51:07;;;;;;;7.63;2.50;;;4.00;91.20;;;;;;5024041;28;20075;-49
2022/12/27 08:53:34;;;;;;;7.88;2.00;;;4.10;91.10;;;;;;5019100;28;20399;-50
2022/12/27 08:56:03;;;;;;;7.07;2.05;;;4.10;90.80;;;;;;5022691;28;20091;-49
2022/12/27 08:58:31;;;;;;;8.68;1.95;;;4.10;90.80;;;;;;5031094;28;20022;-53
2022/12/27 09:01:08;;;;;;;9.23;2.55;;;4.10;90.60;;;;;;5032408;28;20449;-48
2022/12/27 09:03:36;;;;;;;10.98;3.92;;;4.20;90.70;;;;;;5018653;28;20080;-49
2022/12/27 09:06:14;;;;;;;11.77;2.92;;;4.20;90.60;;;;;;5012713;28;20018;-50
2022/12/27 09:08:42;;;;;;;6.55;2.22;;;4.20;90.40;;;;;;5022293;28;20021;-49
2022/12/27 09:11:22;;;;;;;10.20;2.40;;;4.20;90.40;;;;;;5030727;28;20092;-47
2022/12/27 09:13:49;;;;;;;10.82;2.47;;;4.20;90.30;;;;;;5031957;28;20022;-51
2022/12/27 09:16:22;;;;;;;4.57;1.30;;;4.10;90.30;;;;;;5036216;28;20343;-49
2022/12/27 09:18:51;;;;;;;6.15;1.88;;;4.10;90.30;;;;;;5036017;28;20443;-48
2022/12/27 09:21:20;;;;;;;6.33;2.30;;;4.00;90.20;;;;;;5036060;28;20026;-46
2022/12/27 09:23:47;;;;;;;8.52;2.17;;;4.10;90.40;;;;;;5035082;28;20291;-48
2022/12/27 09:26:20;;;;;;;7.65;2.75;;;4.10;90.30;;;;;;5036006;28;20040;-50
2022/12/27 09:28:47;;;;;;;6.88;1.90;;;4.10;90.40;;;;;;5034389;28;20367;-53
2022/12/27 09:31:15;;;;;;;8.60;2.25;;;4.10;90.30;;;;;;5035576;28;20052;-50
2022/12/27 09:33:42;;;;;;;12.27;2.55;;;4.10;90.40;;;;;;5035943;28;20057;-46
2022/12/27 09:36:11;;;;;;;11.80;3.13;;;4.10;90.50;;;;;;5035733;28;20036;-50
2022/12/27 09:38:42;;;;;;;16.90;4.18;;;4.20;90.60;;;;;;5034535;28;20021;-45
2022/12/27 09:41:37;;;;;;;16.02;2.42;;;4.20;90.60;;;;;;5035838;28;20037;-45
2022/12/27 09:44:16;;;;;;;14.10;3.92;;;4.20;90.50;;;;;;5022259;28;20378;-52
2022/12/27 09:47:00;;;;;;;9.37;2.70;;;4.30;90.40;;;;;;5014487;28;20030;-48
2022/12/27 09:49:51;;;;;;;13.95;3.22;;;4.40;90.20;;;;;;5035163;28;20345;-51
2022/12/27 09:52:26;;;;;;;11.45;3.10;;;4.40;90.00;;;;;;5041393;28;20060;-50
2022/12/27 09:55:22;;;;;;;12.32;2.53;;;4.40;89.80;;;;;;5034862;28;20029;-50
2022/12/27 09:57:57;;;;;;;9.05;2.85;;;4.50;89.70;;;;;;5033986;28;20112;-51
2022/12/27 10:00:24;;;;;;;9.50;2.75;;;4.60;89.50;;;;;;5015604;28;20029;-48
2022/12/27 10:02:52;;;;;;;16.02;3.38;;;4.60;89.30;;;;;;5015075;28;20054;-45
2022/12/27 10:05:27;;;;;;;11.25;2.15;;;4.70;89.20;;;;;;5014381;28;20026;-45
2022/12/27 10:08:08;;;;;;;8.73;2.80;;;4.70;89.10;;;;;;5029042;28;20316;-47
2022/12/27 10:11:04;;;;;;;9.18;2.72;;;4.70;89.10;;;;;;5055088;28;20060;-49
2022/12/27 10:13:47;;;;;;;9.20;2.35;;;4.70;89.00;;;;;;5041512;28;20079;-49
2022/12/27 10:16:47;;;;;;;7.80;2.15;;;4.70;89.00;;;;;;5014210;28;20026;-45
2022/12/27 10:19:52;;;;;;;12.90;2.45;;;4.70;89.00;;;;;;5022093;28;20045;-44
2022/12/27 10:22:35;;;;;;;10.32;2.35;;;4.70;89.10;;;;;;5024152;28;20040;-45
2022/12/27 10:25:08;;;;;;;9.02;2.92;;;4.80;89.10;;;;;;5035042;28;20060;-47
2022/12/27 10:27:38;;;;;;;13.20;2.33;;;4.90;89.00;;;;;;5032473;28;20057;-47
2022/12/27 10:30:18;;;;;;;8.50;2.45;;;5.00;89.00;;;;;;5034322;28;20344;-49
2022/12/27 10:32:46;;;;;;;12.43;2.80;;;5.00;88.80;;;;;;5033828;28;20061;-48
2022/12/27 10:35:19;;;;;;;11.30;2.08;;;5.00;88.80;;;;;;5029743;28;20030;-44
2022/12/27 10:37:47;;;;;;;9.60;2.35;;;5.00;88.60;;;;;;5014882;28;20113;-44
2022/12/27 10:40:43;;;;;;;10.43;2.45;;;5.00;88.60;;;;;;5014793;28;20037;-47
2022/12/27 10:43:28;;;;;;;9.50;3.28;;;5.00;88.40;;;;;;5022947;28;20032;-45
2022/12/27 10:46:10;;;;;;;12.77;5.15;;;4.90;88.20;;;;;;5045369;28;20093;-49
2022/12/27 10:48:38;;;;;;;9.82;2.42;;;5.00;88.20;;;;;;5041179;28;20049;-45
2022/12/27 10:51:10;;;;;;;10.18;2.42;;;5.00;88.40;;;;;;5034589;28;20048;-44
2022/12/27 10:53:44;;;;;;;10.73;2.00;;;5.00;88.50;;;;;;5033216;28;20335;-48
2022/12/27 10:56:40;;;;;;;8.48;2.20;;;5.00;88.40;;;;;;5033272;28;20036;-45
2022/12/27 10:59:26;;;;;;;7.07;2.28;;;5.00;88.40;;;;;;5031362;28;20462;-48
2022/12/27 11:02:04;;;;;;;12.18;4.07;;;5.10;88.50;;;;;;5033241;28;20129;-45
2022/12/27 11:04:31;;;;;;;7.82;2.67;;;5.00;88.50;;;;;;5048396;28;20067;-45
2022/12/27 11:07:17;;;;;;;18.08;2.13;;;5.00;88.40;;;;;;5052719;28;20025;-45
2022/12/27 11:09:44;;;;;;;9.05;2.15;;;5.10;88.20;;;;;;5053023;28;20025;-49
2022/12/27 11:12:16;;;;;;;9.68;2.60;;;5.00;88.20;;;;;;5050392;28;20030;-52
2022/12/27 11:15:05;;;;;;;9.23;1.65;;;5.00;87.80;;;;;;5015321;28;20018;-52
2022/12/27 11:17:42;;;;;;;13.23;2.08;;;5.00;87.80;;;;;;5027335;28;20706;-49
2022/12/27 11:20:11;;;;;;;10.23;2.03;;;4.90;88.10;;;;;;5033003;28;20126;-48
2022/12/27 11:22:53;;;;;;;5.93;1.80;;;4.90;88.60;;;;;;5032737;28;20029;-51
2022/12/27 11:25:21;;;;;;;11.35;1.95;;;4.90;88.90;;;;;;5033511;28;20077;-50
2022/12/27 11:27:50;;;;;;;14.25;2.30;;;4.80;88.80;;;;;;5029023;28;20038;-50
2022/12/27 11:30:41;;;;;;;10.07;2.55;;;4.80;88.90;;;;;;5032951;28;20029;-49
2022/12/27 11:33:31;;;;;;;7.40;2.03;;;4.80;89.00;;;;;;5033688;28;20025;-52
2022/12/27 11:35:59;;;;;;;11.93;2.25;;;4.90;89.20;;;;;;5038984;28;20029;-47
2022/12/27 11:38:32;;;;;;;7.57;2.00;;;4.90;89.50;;;;;;5053353;28;20071;-49
2022/12/27 11:41:07;;;;;;;12.45;2.60;;;5.00;89.90;;;;;;5051848;28;20029;-50
2022/12/27 11:43:59;;;;;;;8.85;2.65;;;5.20;90.10;;;;;;5028704;28;20036;-47
2022/12/27 11:46:46;;;;;;;10.85;2.63;;;5.30;90.10;;;;;;5012757;28;20034;-47
2022/12/27 11:49:27;;;;;;;5.10;1.88;;;5.60;89.90;;;;;;5013781;28;20038;-44
2022/12/27 11:52:20;;;;;;;11.25;2.83;;;5.70;89.40;;;;;;5046128;28;20048;-47
2022/12/27 11:55:23;;;;;;;12.10;2.30;;;5.80;89.10;;;;;;5052874;28;20041;-45
2022/12/27 11:58:27;;;;;;;9.60;2.33;;;5.90;89.00;;;;;;5035913;28;20029;-45
2022/12/27 12:01:33;;;;;;;18.08;3.15;;;5.90;88.60;;;;;;5021035;28;20044;-45
2022/12/27 12:04:30;;;;;;;17.33;3.33;;;5.90;88.30;;;;;;5043404;28;20045;-43
2022/12/27 12:07:30;;;;;;;13.77;2.78;;;5.70;88.10;;;;;;5053121;28;20036;-46
2022/12/27 12:10:31;;;;;;;13.30;3.10;;;5.70;88.10;;;;;;5051499;28;20037;-46
2022/12/27 12:13:22;;;;;;;10.48;3.50;;;5.60;88.10;;;;;;5021029;28;20041;-48
2022/12/27 12:16:02;;;;;;;7.60;2.60;;;5.50;88.20;;;;;;5032089;28;20430;-47
2022/12/27 12:19:05;;;;;;;9.15;3.00;;;5.40;88.50;;;;;;5012383;28;20416;-46
2022/12/27 12:22:03;;;;;;;9.18;3.17;;;5.40;88.70;;;;;;5013021;28;20034;-43
2022/12/27 12:25:12;;;;;;;13.43;4.15;;;5.50;88.60;;;;;;5013506;28;20052;-43
2022/12/27 12:27:58;;;;;;;16.45;4.53;;;5.40;88.50;;;;;;5016291;28;20018;-45
2022/12/27 12:31:06;;;;;;;12.80;3.05;;;5.40;88.70;;;;;;5013287;28;20440;-44
2022/12/27 12:33:59;;;;;;;10.80;2.88;;;5.40;88.80;;;;;;5024010;28;20041;-43
2022/12/27 12:37:03;;;;;;;8.70;3.22;;;5.40;89.00;;;;;;5035784;28;20118;-47
2022/12/27 12:40:12;;;;;;;12.55;3.20;;;5.30;89.10;;;;;;5051819;28;20017;-48
2022/12/27 12:43:18;;;;;;;7.20;2.83;;;5.30;89.20;;;;;;5046062;28;20029;-46
2022/12/27 12:46:21;;;;;;;11.98;2.70;;;5.30;89.30;;;;;;5013496;28;20387;-45
2022/12/27 12:49:11;;;;;;;11.10;3.00;;;5.20;89.40;;;;;;5017303;28;20104;-45
2022/12/27 12:51:55;;;;;;;11.85;2.58;;;5.30;89.40;;;;;;5043216;28;20033;-44
2022/12/27 12:54:49;;;;;;;8.93;3.45;;;5.20;89.60;;;;;;5056264;28;20431;-43
2022/12/27 12:57:37;;;;;;;6.90;3.13;;;5.20;89.50;;;;;;5033326;28;20025;-45
2022/12/27 13:00:24;;;;;;;7.97;2.80;;;5.20;89.60;;;;;;5030858;28;20029;-43
2022/12/27 13:03:39;;;;;;;6.55;2.70;;;5.20;89.60;;;;;;5015192;28;20382;-50
2022/12/27 13:06:40;;;;;;;11.15;2.65;;;5.20;89.70;;;;;;5027511;28;20517;-45
2022/12/27 13:09:41;;;;;;;9.95;3.03;;;5.20;89.80;;;;;;5036490;28;20041;-43
2022/12/27 13:12:38;;;;;;;9.85;2.40;;;5.20;89.90;;;;;;5035694;28;20041;-50
2022/12/27 13:15:49;;;;;;;8.93;2.58;;;5.30;89.90;;;;;;5016411;28;20073;-42
2022/12/27 13:18:52;;;;;;;8.07;2.60;;;5.30;89.80;;;;;;5016608;28;20028;-44
2022/12/27 13:21:51;;;;;;;10.13;2.78;;;5.30;89.80;;;;;;5031207;28;20025;-47
2022/12/27 13:24:55;;;;;;;9.02;4.00;;;5.40;89.70;;;;;;5035124;28;20087;-42
2022/12/27 13:27:26;;;;;;;9.82;2.80;;;5.40;89.60;;;;;;5044967;28;20037;-43
2022/12/27 13:30:12;;;;;;;7.97;2.53;;;5.40;89.50;;;;;;5035957;28;20030;-47
2022/12/27 13:33:03;;;;;;;7.45;2.22;;;5.40;89.40;;;;;;5042393;28;20091;-43
2022/12/27 13:36:14;;;;;;;12.70;2.90;;;5.40;89.30;;;;;;5055825;28;20071;-45
2022/12/27 13:39:32;;;;;;;9.60;2.40;;;5.40;89.30;;;;;;5047557;28;20017;-44
2022/12/27 13:42:43;;;;;;;5.97;2.57;;;5.40;89.30;;;;;;5025485;28;20037;-47
2022/12/27 13:45:30;;;;;;;7.00;2.42;;;5.40;89.30;;;;;;5003933;28;20042;-44
2022/12/27 13:48:26;;;;;;;10.38;2.17;;;5.40;89.40;;;;;;5040655;28;20058;-45
2022/12/27 13:51:30;;;;;;;12.93;2.50;;;5.40;89.40;;;;;;5019729;28;20038;-43
2022/12/27 13:54:23;;;;;;;17.92;3.20;;;5.40;89.40;;;;;;5016228;28;20032;-43
2022/12/27 13:57:26;;;;;;;10.00;2.67;;;5.40;89.20;;;;;;5023235;28;20112;-49
2022/12/27 14:00:18;;;;;;;7.50;2.55;;;5.40;89.20;;;;;;5032277;28;20091;-46
2022/12/27 14:03:17;;;;;;;11.15;3.55;;;5.40;89.20;;;;;;5033344;28;20101;-48
2022/12/27 14:06:10;;;;;;;13.07;2.55;;;5.40;89.30;;;;;;5042771;28;20025;-45
2022/12/27 14:08:57;;;;;;;10.43;3.00;;;5.40;89.30;;;;;;5054229;28;20082;-46
2022/12/27 14:12:02;;;;;;;8.73;2.45;;;5.40;89.30;;;;;;5037756;28;20466;-44
2022/12/27 14:14:30;;;;;;;10.80;2.58;;;5.40;89.20;;;;;;5027157;28;20052;-43
2022/12/27 14:17:33;;;;;;;10.68;3.13;;;5.40;89.20;;;;;;5035101;28;20459;-44
2022/12/27 14:20:23;;;;;;;10.48;3.08;;;5.40;89.10;;;;;;5032132;28;20037;-44
2022/12/27 14:23:19;;;;;;;10.82;2.35;;;5.30;89.20;;;;;;5050933;28;20021;-43
2022/12/27 14:26:05;;;;;;;11.95;2.70;;;5.30;89.20;;;;;;5048228;28;20056;-46
2022/12/27 14:28:46;;;;;;;9.85;3.35;;;5.20;89.10;;;;;;5015160;28;20034;-43
2022/12/27 14:31:23;;;;;;;13.98;3.30;;;5.20;89.20;;;;;;5014639;28;20481;-43
2022/12/27 14:34:07;;;;;;;9.32;2.35;;;5.10;89.40;;;;;;5013958;28;20446;-45
2022/12/27 14:37:07;;;;;;;9.13;2.38;;;5.10;89.60;;;;;;5035943;28;20056;-44
2022/12/27 14:40:00;;;;;;;12.48;2.65;;;5.00;89.70;;;;;;5054499;28;20561;-44
2022/12/27 14:43:03;;;;;;;10.38;2.10;;;5.00;89.70;;;;;;5037462;28;20043;-47
2022/12/27 14:45:53;;;;;;;10.77;3.83;;;5.00;89.60;;;;;;5052010;28;20037;-46
2022/12/27 14:48:38;;;;;;;;;;;4.90;89.70;;;;;;5054911;28;20025;-46
2022/12/27 14:51:42;;;;;;;10.70;2.80;;;4.90;89.90;;;;;;5054330;28;19959;-45
2022/12/27 14:54:07;;;;;;;14.65;2.97;;;4.90;89.90;;;;;;5041099;28;20033;-43
2022/12/27 14:56:48;;;;;;;15.88;3.22;;;4.80;90.00;;;;;;5033252;28;20048;-44
2022/12/27 14:59:34;;;;;;;9.98;2.50;;;4.80;90.20;;;;;;5034360;28;20032;-48
2022/12/27 15:02:28;;;;;;;7.85;2.38;;;4.80;90.30;;;;;;5038732;28;20036;-47
2022/12/27 15:05:26;;;;;;;15.43;2.92;;;4.70;90.40;;;;;;5041891;28;20120;-44
2022/12/27 15:08:29;;;;;;;9.57;2.63;;;4.70;90.50;;;;;;5032441;28;20080;-42
2022/12/27 15:11:24;;;;;;;15.30;3.03;;;4.70;90.60;;;;;;5032738;28;20033;-44
2022/12/27 15:14:25;;;;;;;12.25;3.15;;;4.70;90.70;;;;;;5032936;28;20363;-43
2022/12/27 15:17:17;;;;;;;12.40;3.13;;;4.70;90.60;;;;;;5047400;28;20091;-44
2022/12/27 15:20:08;;;;;;;9.93;3.50;;;4.70;90.80;;;;;;5052768;28;20020;-43
2022/12/27 15:23:04;;;;;;;9.88;3.00;;;4.60;90.80;;;;;;5032895;28;20025;-46
2022/12/27 15:25:45;;;;;;;11.85;3.13;;;4.60;90.90;;;;;;5033791;28;20031;-45
2022/12/27 15:28:40;;;;;;;9.75;3.72;;;4.60;91.00;;;;;;5033858;28;20029;-44
2022/12/27 15:31:14;;;;;;;11.35;3.40;;;4.60;91.10;;;;;;5032643;28;20025;-46
2022/12/27 15:34:23;;;;;;;8.10;2.92;;;4.60;91.20;;;;;;5033630;28;20092;-46
2022/12/27 15:36:50;;;;;;;9.10;2.65;;;4.60;91.30;;;;;;5027631;28;20048;-44
2022/12/27 15:39:34;;;;;;;7.68;2.33;;;4.60;91.40;;;;;;5039661;28;20485;-43